createdAt,value
2018-05-24T00:01:18.435Z,19.43
2018-05-24T00:03:45.954Z,19.37
2018-05-24T00:06:13.947Z,19.37
2018-05-24T00:08:41.916Z,19.33
2018-05-24T00:11:09.483Z,19.12
2018-05-24T00:13:37.022Z,19.11
2018-05-24T00:16:05.593Z,19.09
2018-05-24T00:18:33.061Z,19.12
2018-05-24T00:21:00.555Z,19.16
2018-05-24T00:23:28.025Z,19.17
2018-05-24T00:25:55.573Z,19.16
2018-05-24T00:28:24.134Z,19.11
2018-05-24T00:30:51.624Z,19.11
2018-05-24T00:33:19.672Z,19.12
2018-05-24T00:35:47.217Z,19.09
2018-05-24T00:38:14.754Z,19.09
2018-05-24T00:40:43.057Z,19.11
2018-05-24T00:43:10.701Z,19.06
2018-05-24T00:45:38.155Z,19.08
2018-05-24T00:48:05.966Z,19.09
2018-05-24T00:50:33.560Z,18.97
2018-05-24T00:53:01.039Z,18.81
2018-05-24T00:55:40.159Z,18.73
2018-05-24T00:58:08.316Z,18.63
2018-05-24T01:00:35.710Z,18.67
2018-05-24T01:03:03.209Z,18.65
2018-05-24T01:05:30.724Z,18.68
2018-05-24T01:07:58.322Z,18.68
2018-05-24T01:10:25.808Z,18.60
2018-05-24T01:12:53.280Z,18.55
2018-05-24T01:15:20.756Z,18.59
2018-05-24T01:17:48.227Z,18.65
2018-05-24T01:20:15.732Z,18.71
2018-05-24T01:22:43.190Z,18.71
2018-05-24T01:25:10.687Z,18.64
2018-05-24T01:27:38.177Z,18.57
2018-05-24T01:30:05.693Z,18.51
2018-05-24T01:32:33.156Z,18.40
2018-05-24T01:35:00.628Z,18.35
2018-05-24T01:37:40.018Z,18.17
2018-05-24T01:40:07.537Z,18.21
2018-05-24T01:42:34.988Z,18.11
2018-05-24T01:45:02.470Z,18.02
2018-05-24T01:47:29.929Z,18.03
2018-05-24T01:49:57.513Z,17.96
2018-05-24T01:52:24.998Z,17.90
2018-05-24T01:54:52.502Z,17.72
2018-05-24T01:57:19.994Z,17.65
2018-05-24T01:59:48.313Z,17.47
2018-05-24T02:02:15.799Z,17.57
2018-05-24T02:04:43.336Z,17.54
2018-05-24T02:07:10.929Z,17.60
2018-05-24T02:09:38.403Z,17.74
2018-05-24T02:12:05.882Z,17.85
2018-05-24T02:14:33.356Z,17.87
2018-05-24T02:17:00.827Z,17.91
2018-05-24T02:19:28.409Z,17.93
2018-05-24T02:21:55.893Z,17.86
2018-05-24T02:24:23.355Z,17.73
2018-05-24T02:26:50.883Z,17.63
2018-05-24T02:29:18.433Z,17.59
2018-05-24T02:31:45.983Z,17.61
2018-05-24T02:34:13.443Z,17.65
2018-05-24T02:36:40.957Z,17.73
2018-05-24T02:39:08.457Z,17.79
2018-05-24T02:41:35.939Z,17.77
2018-05-24T02:44:03.401Z,17.74
2018-05-24T02:46:30.872Z,17.78
2018-05-24T02:48:58.359Z,17.81
2018-05-24T02:51:25.944Z,17.84
2018-05-24T02:53:53.426Z,17.89
2018-05-24T02:56:21.053Z,17.88
2018-05-24T02:58:48.416Z,17.88
2018-05-24T03:01:15.890Z,17.81
2018-05-24T03:03:43.461Z,17.81
2018-05-24T03:06:10.988Z,17.81
2018-05-24T03:08:38.549Z,17.82
2018-05-24T03:11:06.034Z,17.85
2018-05-24T03:13:33.564Z,17.83
2018-05-24T03:16:01.015Z,17.85
2018-05-24T03:18:28.511Z,17.87
2018-05-24T03:20:55.952Z,17.87
2018-05-24T03:23:23.505Z,17.83
2018-05-24T03:25:50.981Z,17.77
2018-05-24T03:28:18.920Z,17.77
2018-05-24T03:30:47.512Z,17.74
2018-05-24T03:33:15.062Z,17.71
2018-05-24T03:35:42.636Z,17.67
2018-05-24T03:38:10.088Z,17.63
2018-05-24T03:40:37.557Z,17.62
2018-05-24T03:43:05.007Z,17.61
2018-05-24T03:45:32.547Z,17.64
2018-05-24T03:48:00.022Z,17.65
2018-05-24T03:50:27.502Z,17.66
2018-05-24T03:52:55.595Z,17.69
2018-05-24T03:55:23.113Z,17.71
2018-05-24T03:57:51.091Z,17.68
2018-05-24T04:00:30.499Z,17.59
2018-05-24T04:03:09.873Z,17.53
2018-05-24T04:05:37.381Z,17.48
2018-05-24T04:08:04.867Z,17.49
2018-05-24T04:10:33.221Z,17.48
2018-05-24T04:13:00.706Z,17.52
2018-05-24T04:15:28.163Z,17.52
2018-05-24T04:17:55.636Z,17.55
2018-05-24T04:20:23.114Z,17.58
2018-05-24T04:22:50.590Z,17.60
2018-05-24T04:25:18.093Z,17.60
2018-05-24T04:27:45.581Z,17.65
2018-05-24T04:30:13.125Z,17.71
2018-05-24T04:32:40.675Z,17.75
2018-05-24T04:35:08.201Z,17.80
2018-05-24T04:37:35.690Z,17.85
2018-05-24T04:40:03.187Z,17.89
2018-05-24T04:42:30.781Z,17.91
2018-05-24T04:44:58.258Z,17.98
2018-05-24T04:47:27.318Z,18.02
2018-05-24T04:49:54.814Z,18.11
2018-05-24T04:52:22.773Z,18.15
2018-05-24T04:54:51.059Z,18.31
2018-05-24T04:57:18.618Z,18.48
2018-05-24T04:59:46.166Z,18.65
2018-05-24T05:02:13.645Z,18.77
2018-05-24T05:04:41.232Z,18.90
2018-05-24T05:07:08.720Z,18.81
2018-05-24T05:09:36.211Z,18.81
2018-05-24T05:12:04.512Z,18.91
2018-05-24T05:14:32.381Z,19.02
2018-05-24T05:16:59.815Z,19.09
2018-05-24T05:19:27.452Z,19.12
2018-05-24T05:21:54.954Z,19.11
2018-05-24T05:24:22.442Z,19.14
2018-05-24T05:26:49.964Z,19.16
2018-05-24T05:29:17.524Z,19.13
2018-05-24T05:31:45.674Z,19.14
2018-05-24T05:34:13.148Z,19.19
2018-05-24T05:36:40.631Z,19.30
2018-05-24T05:39:09.179Z,19.41
2018-05-24T05:41:36.647Z,19.53
2018-05-24T05:44:04.112Z,19.61
2018-05-24T05:46:31.703Z,19.71
2018-05-24T05:48:59.509Z,19.79
2018-05-24T05:51:30.541Z,19.92
2018-05-24T05:53:58.010Z,20.02
2018-05-24T05:56:25.520Z,20.07
2018-05-24T05:58:53.026Z,20.02
2018-05-24T06:01:21.182Z,19.80
2018-05-24T06:03:48.718Z,19.69
2018-05-24T06:06:16.256Z,19.68
2018-05-24T06:08:43.790Z,19.74
2018-05-24T06:11:11.301Z,19.71
2018-05-24T06:13:38.793Z,19.68
2018-05-24T06:16:06.241Z,19.71
2018-05-24T06:18:33.833Z,19.70
2018-05-24T06:21:01.487Z,19.58
2018-05-24T06:23:29.321Z,19.42
2018-05-24T06:25:57.238Z,19.30
2018-05-24T06:28:24.885Z,19.34
2018-05-24T06:30:52.251Z,19.35
2018-05-24T06:33:19.802Z,19.40
2018-05-24T06:35:48.462Z,19.32
2018-05-24T06:38:17.278Z,19.42
2018-05-24T06:40:44.791Z,19.57
2018-05-24T06:43:12.307Z,19.57
2018-05-24T06:45:39.880Z,19.64
2018-05-24T06:48:07.817Z,19.76
2018-05-24T06:50:35.361Z,19.85
2018-05-24T06:53:02.851Z,19.90
2018-05-24T06:55:30.318Z,19.82
2018-05-24T06:57:57.802Z,19.62
2018-05-24T07:00:25.311Z,19.59
2018-05-24T07:02:52.825Z,19.71
2018-05-24T07:05:20.322Z,19.74
2018-05-24T07:07:47.804Z,19.75
2018-05-24T07:10:15.293Z,20.02
2018-05-24T07:12:42.898Z,20.25
2018-05-24T07:15:10.420Z,20.45
2018-05-24T07:17:37.929Z,20.66
2018-05-24T07:20:05.414Z,20.75
2018-05-24T07:22:32.948Z,20.61
2018-05-24T07:25:00.436Z,20.71
2018-05-24T07:27:27.998Z,20.73
2018-05-24T07:29:55.451Z,21.00
2018-05-24T07:32:23.081Z,21.15
2018-05-24T07:34:50.553Z,21.13
2018-05-24T07:37:18.007Z,21.22
2018-05-24T07:39:46.264Z,21.07
2018-05-24T07:42:13.751Z,21.13
2018-05-24T07:44:41.341Z,21.42
2018-05-24T07:47:08.916Z,21.31
2018-05-24T07:49:36.418Z,21.06
2018-05-24T07:52:03.935Z,21.33
2018-05-24T07:54:31.497Z,21.73
2018-05-24T07:56:59.016Z,22.02
2018-05-24T07:59:26.492Z,22.19
2018-05-24T08:01:53.983Z,22.32
2018-05-24T08:04:21.470Z,22.15
2018-05-24T08:06:48.981Z,22.21
2018-05-24T08:09:16.766Z,22.27
2018-05-24T08:11:44.245Z,22.25
2018-05-24T08:14:12.570Z,22.15
2018-05-24T08:16:40.192Z,22.19
2018-05-24T08:19:07.812Z,22.34
2018-05-24T08:21:35.342Z,22.42
2018-05-24T08:24:02.865Z,22.22
2018-05-24T08:26:30.516Z,22.10
2018-05-24T08:28:58.008Z,22.10
2018-05-24T08:31:25.477Z,22.26
2018-05-24T08:33:52.956Z,22.27
2018-05-24T08:36:20.541Z,22.35
2018-05-24T08:38:48.026Z,22.52
2018-05-24T08:41:15.584Z,22.71
2018-05-24T08:43:43.074Z,22.75
2018-05-24T08:46:11.339Z,22.66
2018-05-24T08:48:38.884Z,22.62
2018-05-24T08:51:06.929Z,22.70
2018-05-24T08:53:34.405Z,22.78
2018-05-24T08:56:02.032Z,22.99
2018-05-24T08:58:29.533Z,22.93
2018-05-24T09:00:57.002Z,23.20
2018-05-24T09:03:26.319Z,23.25
2018-05-24T09:05:53.896Z,23.18
2018-05-24T09:08:21.423Z,23.03
2018-05-24T09:10:48.902Z,22.92
2018-05-24T09:13:16.413Z,22.92
2018-05-24T09:15:43.873Z,23.12
2018-05-24T09:18:12.520Z,23.33
2018-05-24T09:20:40.005Z,23.63
2018-05-24T09:23:07.494Z,24.01
2018-05-24T09:25:35.598Z,24.12
2018-05-24T09:28:03.164Z,24.19
2018-05-24T09:30:30.675Z,24.22
2018-05-24T09:32:58.142Z,24.15
2018-05-24T09:35:25.648Z,24.27
2018-05-24T09:37:53.117Z,24.33
2018-05-24T09:40:20.680Z,24.48
2018-05-24T09:42:49.579Z,24.59
2018-05-24T09:45:17.061Z,24.73
2018-05-24T09:47:44.572Z,24.91
2018-05-24T09:50:13.068Z,25.13
2018-05-24T09:52:40.556Z,25.29
2018-05-24T09:55:08.126Z,25.44
2018-05-24T09:57:35.576Z,25.41
2018-05-24T10:00:03.111Z,25.46
2018-05-24T10:02:30.693Z,25.49
2018-05-24T10:04:58.283Z,25.54
2018-05-24T10:07:25.756Z,25.58
2018-05-24T10:09:53.946Z,25.65
2018-05-24T10:12:22.414Z,25.75
2018-05-24T10:14:49.879Z,25.85
2018-05-24T10:17:17.452Z,26.08
2018-05-24T10:19:44.901Z,25.96
2018-05-24T10:22:12.539Z,25.70
2018-05-24T10:24:40.041Z,25.60
2018-05-24T10:27:07.672Z,25.65
2018-05-24T10:29:35.179Z,25.83
2018-05-24T10:32:02.828Z,25.97
2018-05-24T10:34:30.504Z,26.14
2018-05-24T10:36:59.057Z,26.09
2018-05-24T10:39:26.825Z,26.06
2018-05-24T10:44:26.597Z,26.18
2018-05-24T10:46:54.081Z,26.28
2018-05-24T10:49:21.624Z,26.33
2018-05-24T10:51:49.607Z,26.17
2018-05-24T10:54:17.073Z,26.29
2018-05-24T10:56:44.719Z,26.16
2018-05-24T10:59:15.655Z,26.12
2018-05-24T11:01:47.216Z,26.02
2018-05-24T11:04:15.197Z,25.84
2018-05-24T11:06:42.746Z,25.97
2018-05-24T11:09:12.747Z,26.17
2018-05-24T11:11:40.370Z,26.22
2018-05-24T11:14:07.900Z,26.14
2018-05-24T11:16:35.999Z,26.27
2018-05-24T11:19:04.313Z,26.55
2018-05-24T11:21:31.877Z,26.51
2018-05-24T11:24:00.151Z,26.66
2018-05-24T11:26:27.921Z,26.97
2018-05-24T11:28:55.533Z,26.91
2018-05-24T11:31:23.398Z,27.14
2018-05-24T11:33:52.224Z,27.37
2018-05-24T11:36:19.776Z,27.50
2018-05-24T11:38:47.271Z,27.38
2018-05-24T11:41:16.499Z,27.27
2018-05-24T11:43:44.329Z,27.52
2018-05-24T11:46:12.519Z,27.78
2018-05-24T11:48:40.751Z,27.94
2018-05-24T11:51:08.233Z,27.91
2018-05-24T11:53:36.144Z,28.08
2018-05-24T11:56:03.659Z,27.88
2018-05-24T11:58:31.116Z,27.99
2018-05-24T12:00:58.693Z,27.95
2018-05-24T12:03:27.175Z,27.84
2018-05-24T12:05:54.990Z,27.48
2018-05-24T12:08:23.909Z,27.40
2018-05-24T12:10:51.720Z,27.67
2018-05-24T12:13:19.680Z,28.02
2018-05-24T12:15:47.909Z,28.20
2018-05-24T12:18:16.145Z,28.38
2018-05-24T12:20:43.701Z,28.65
2018-05-24T12:23:11.307Z,28.70
2018-05-24T12:25:42.970Z,28.82
2018-05-24T12:28:11.915Z,28.93
2018-05-24T12:30:40.561Z,28.75
2018-05-24T12:33:08.098Z,28.91
2018-05-24T12:35:35.780Z,29.06
2018-05-24T12:38:04.115Z,29.08
2018-05-24T12:40:31.722Z,29.09
2018-05-24T12:42:59.520Z,29.30
2018-05-24T12:45:27.935Z,29.21
2018-05-24T12:47:55.778Z,29.41
2018-05-24T12:50:23.296Z,29.79
2018-05-24T12:52:50.937Z,29.73
2018-05-24T12:55:18.649Z,29.58
2018-05-24T12:57:46.193Z,29.33
2018-05-24T13:00:14.495Z,29.07
2018-05-24T13:02:42.800Z,29.58
2018-05-24T13:05:10.300Z,29.56
2018-05-24T13:07:37.807Z,29.51
2018-05-24T13:10:05.270Z,29.31
2018-05-24T13:12:32.745Z,29.17
2018-05-24T13:15:00.237Z,29.06
2018-05-24T13:17:29.541Z,29.02
2018-05-24T13:19:57.524Z,29.39
2018-05-24T13:22:25.491Z,30.47
2018-05-24T13:24:53.642Z,31.14
2018-05-24T13:27:21.112Z,31.54
2018-05-24T13:29:48.697Z,31.48
2018-05-24T13:32:16.276Z,31.20
2018-05-24T13:34:45.147Z,30.39
2018-05-24T13:37:12.995Z,30.51
2018-05-24T13:39:40.560Z,30.74
2018-05-24T13:42:08.175Z,30.46
2018-05-24T13:44:37.427Z,30.55
2018-05-24T13:47:05.065Z,30.46
2018-05-24T13:49:32.852Z,30.11
2018-05-24T13:52:00.362Z,29.61
2018-05-24T13:54:28.617Z,29.14
2018-05-24T13:56:56.912Z,28.61
2018-05-24T13:59:25.143Z,28.20
2018-05-24T14:01:52.733Z,27.94
2018-05-24T14:04:20.254Z,27.74
2018-05-24T14:06:48.241Z,27.45
2018-05-24T14:09:17.502Z,26.95
2018-05-24T14:11:46.147Z,26.74
2018-05-24T14:16:47.955Z,26.29
2018-05-24T14:19:15.842Z,25.89
2018-05-24T14:21:45.250Z,25.70
2018-05-24T14:24:13.261Z,25.46
2018-05-24T14:26:41.317Z,25.18
2018-05-24T14:29:08.800Z,25.12
2018-05-24T14:31:36.420Z,24.98
2018-05-24T14:34:04.746Z,24.72
2018-05-24T14:36:34.913Z,24.69
2018-05-24T14:39:02.988Z,24.57
2018-05-24T14:41:31.725Z,24.21
2018-05-24T14:44:00.678Z,23.89
2018-05-24T14:46:28.991Z,24.05
2018-05-24T14:48:59.497Z,23.13
2018-05-24T14:51:28.100Z,21.60
2018-05-24T14:53:59.249Z,20.90
2018-05-24T14:56:28.443Z,20.35
2018-05-24T14:58:56.061Z,19.95
2018-05-24T15:01:23.533Z,19.78
2018-05-24T15:03:51.074Z,19.69
2018-05-24T15:06:18.695Z,19.66
2018-05-24T15:08:46.202Z,19.48
2018-05-24T15:11:14.087Z,19.36
2018-05-24T15:13:50.748Z,19.33
2018-05-24T15:16:18.234Z,19.47
2018-05-24T15:18:46.219Z,19.54
2018-05-24T15:21:13.859Z,19.43
2018-05-24T15:23:41.354Z,19.34
2018-05-24T15:26:09.143Z,19.43
2018-05-24T15:28:36.753Z,19.54
2018-05-24T15:31:04.252Z,19.63
2018-05-24T15:33:33.053Z,19.78
2018-05-24T15:36:00.592Z,19.86
2018-05-24T15:38:28.375Z,19.95
2018-05-24T15:40:56.007Z,20.05
2018-05-24T15:43:23.823Z,20.14
2018-05-24T15:45:51.701Z,20.25
2018-05-24T15:48:19.234Z,20.33
2018-05-24T15:52:57.134Z,20.34
2018-05-24T15:55:25.110Z,20.36
2018-05-24T15:57:52.599Z,20.34
2018-05-24T16:00:21.493Z,20.36
2018-05-24T16:02:50.170Z,20.41
2018-05-24T16:05:18.664Z,20.43
2018-05-24T16:07:46.156Z,20.45
2018-05-24T16:10:13.603Z,20.42
2018-05-24T16:12:41.240Z,20.47
2018-05-24T16:15:09.694Z,20.51
2018-05-24T16:17:37.236Z,20.58
2018-05-24T16:20:04.726Z,20.67
2018-05-24T16:22:33.202Z,20.71
2018-05-24T16:25:01.554Z,20.68
2018-05-24T16:27:29.910Z,20.61
2018-05-24T16:29:57.380Z,20.61
2018-05-24T16:32:24.953Z,20.67
2018-05-24T16:34:52.849Z,20.81
2018-05-24T16:37:20.749Z,20.88
2018-05-24T16:39:48.691Z,20.80
2018-05-24T16:42:16.262Z,20.74
2018-05-24T16:44:43.843Z,20.78
2018-05-24T16:47:11.366Z,20.83
2018-05-24T16:52:13.012Z,20.87
2018-05-24T16:54:41.121Z,20.91
2018-05-24T16:57:08.622Z,20.83
2018-05-24T16:59:36.140Z,20.81
2018-05-24T17:02:03.644Z,20.69
2018-05-24T17:04:31.146Z,20.68
2018-05-24T17:06:59.727Z,20.77
2018-05-24T17:09:28.419Z,20.83
2018-05-24T17:11:55.994Z,20.73
2018-05-24T17:14:25.172Z,20.71
2018-05-24T17:16:54.196Z,20.51
2018-05-24T17:19:21.678Z,20.53
2018-05-24T17:21:50.267Z,20.45
2018-05-24T17:24:19.788Z,20.57
2018-05-24T17:26:47.765Z,20.67
2018-05-24T17:29:15.335Z,20.76
2018-05-24T17:31:43.969Z,20.73
2018-05-24T17:34:11.441Z,20.81
2018-05-24T17:36:38.942Z,20.88
2018-05-24T17:39:07.263Z,20.92
2018-05-24T17:41:35.278Z,20.96
2018-05-24T17:44:03.014Z,20.99
2018-05-24T17:46:30.872Z,20.95
2018-05-24T17:48:58.356Z,20.68
2018-05-24T17:51:26.221Z,20.61
2018-05-24T17:53:55.473Z,20.62
2018-05-24T17:56:23.019Z,20.57
2018-05-24T17:58:50.556Z,20.42
2018-05-24T18:01:18.383Z,20.29
2018-05-24T18:03:46.492Z,20.19
2018-05-24T18:06:14.054Z,20.15
2018-05-24T18:08:41.936Z,20.18
2018-05-24T18:14:02.212Z,20.09
2018-05-24T18:16:33.775Z,19.91
2018-05-24T18:19:36.197Z,19.83
2018-05-24T18:22:04.125Z,19.81
2018-05-24T18:27:47.452Z,19.94
2018-05-24T18:55:49.215Z,19.72
2018-05-24T18:58:42.920Z,19.76
2018-05-24T19:01:24.253Z,19.80
2018-05-24T19:03:51.727Z,19.83
2018-05-24T19:06:27.704Z,19.75
2018-05-24T19:18:41.229Z,19.43
2018-05-24T19:21:37.785Z,19.42
2018-05-24T19:24:05.362Z,19.44
2018-05-24T19:29:45.251Z,19.36
2018-05-24T19:32:22.215Z,19.26
2018-05-24T19:34:51.860Z,19.32
2018-05-24T19:37:24.894Z,19.33
2018-05-24T19:43:01.655Z,19.29
2018-05-24T19:45:29.565Z,19.28
2018-05-24T19:47:57.045Z,19.28
2018-05-24T19:50:24.644Z,19.30
2018-05-24T19:52:52.126Z,19.30
2018-05-24T19:55:19.856Z,19.25
2018-05-24T19:57:47.398Z,19.19
2018-05-24T20:00:15.792Z,19.11
2018-05-24T20:02:43.235Z,19.07
2018-05-24T20:05:10.763Z,19.05
2018-05-24T20:07:38.517Z,19.03
2018-05-24T20:10:06.054Z,19.00
2018-05-24T20:12:33.529Z,18.97
2018-05-24T20:15:01.054Z,18.99
2018-05-24T20:17:28.511Z,18.97
2018-05-24T20:19:56.102Z,18.98
2018-05-24T20:22:23.587Z,18.96
2018-05-24T20:24:51.815Z,18.87
2018-05-24T20:27:19.730Z,18.88
2018-05-24T20:29:47.214Z,18.86
2018-05-24T20:32:15.564Z,18.86
2018-05-24T20:34:43.050Z,18.83
2018-05-24T20:37:10.536Z,18.86
2018-05-24T20:39:40.493Z,18.81
2018-05-24T20:42:07.990Z,18.77
2018-05-24T20:44:35.491Z,18.72
2018-05-24T20:47:03.284Z,18.65
2018-05-24T20:49:30.789Z,18.60
2018-05-24T20:51:58.282Z,18.56
2018-05-24T20:54:26.735Z,18.55
2018-05-24T20:56:54.358Z,18.57
2018-05-24T20:59:21.850Z,18.54
2018-05-24T21:01:51.181Z,18.48
2018-05-24T21:04:18.940Z,18.40
2018-05-24T21:06:46.415Z,18.45
2018-05-24T21:09:13.884Z,18.38
2018-05-24T21:11:41.776Z,18.37
2018-05-24T21:14:09.285Z,18.31
2018-05-24T21:16:37.060Z,18.35
2018-05-24T21:19:04.613Z,18.32
2018-05-24T21:21:32.898Z,18.31
2018-05-24T21:24:00.405Z,18.31
2018-05-24T21:26:27.884Z,18.30
2018-05-24T21:28:55.686Z,18.21
2018-05-24T21:31:23.153Z,18.16
2018-05-24T21:33:50.760Z,18.16
2018-05-24T21:36:18.561Z,18.14
2018-05-24T21:38:46.079Z,18.09
2018-05-24T21:41:13.633Z,18.01
2018-05-24T21:43:41.089Z,17.99
2018-05-24T21:46:08.567Z,18.02
2018-05-24T21:48:36.048Z,17.99
2018-05-24T21:51:03.647Z,18.01
2018-05-24T21:53:31.298Z,17.97
2018-05-24T21:55:59.244Z,17.98
2018-05-24T21:58:29.370Z,17.94
2018-05-24T22:00:56.894Z,17.95
2018-05-24T22:03:24.661Z,17.93
2018-05-24T22:05:52.147Z,17.90
2018-05-24T22:08:19.623Z,17.90
2018-05-24T22:10:47.176Z,17.91
2018-05-24T22:13:16.075Z,17.89
2018-05-24T22:15:43.582Z,17.86
2018-05-24T22:18:11.087Z,17.83
2018-05-24T22:20:40.143Z,17.83
2018-05-24T22:23:08.491Z,17.81
2018-05-24T22:25:36.719Z,17.81
2018-05-24T22:28:04.162Z,17.83
2018-05-24T22:30:31.954Z,17.78
2018-05-24T22:32:59.438Z,17.73
2018-05-24T22:35:27.909Z,17.67
2018-05-24T22:37:56.022Z,17.63
2018-05-24T22:40:23.482Z,17.59
2018-05-24T22:42:51.255Z,17.55
2018-05-24T22:45:18.757Z,17.52
2018-05-24T22:47:46.217Z,17.49
2018-05-24T22:50:13.715Z,17.38
2018-05-24T22:52:41.522Z,17.30
2018-05-24T22:55:09.045Z,17.27
2018-05-24T22:57:37.612Z,17.25
2018-05-24T23:00:05.089Z,17.19
2018-05-24T23:02:32.556Z,17.21
2018-05-24T23:05:00.144Z,17.20
2018-05-24T23:07:27.581Z,17.15
2018-05-24T23:09:55.101Z,17.09
2018-05-24T23:12:23.399Z,17.08
2018-05-24T23:14:50.959Z,17.08
2018-05-24T23:17:18.414Z,17.06
2018-05-24T23:19:46.186Z,17.04
2018-05-24T23:22:25.325Z,17.00
2018-05-24T23:24:52.769Z,16.97
2018-05-24T23:27:20.246Z,16.90
2018-05-24T23:29:47.964Z,16.93
2018-05-24T23:32:15.749Z,16.91
2018-05-24T23:34:43.205Z,16.90
2018-05-24T23:37:11.000Z,16.88
2018-05-24T23:39:38.478Z,16.86
2018-05-24T23:42:06.003Z,16.80
2018-05-24T23:44:33.516Z,16.83
2018-05-24T23:47:01.320Z,16.82
2018-05-24T23:49:30.011Z,16.79
2018-05-24T23:51:57.576Z,16.78
2018-05-24T23:54:25.768Z,16.80
2018-05-24T23:56:53.546Z,16.85
2018-05-24T23:59:21.064Z,16.84
